• Join FlightAware (Why Join?)
  • Login
  • US Flag 
01:46AM EDT


 

Airport Tracker/Info


-or-


 

Live Flight TrackerFlight Track Log ✈ ASQ6151 ✈ 05-Jun-2013 ✈ KORD - KORF

Flight Track Log - Related Links

Times and Time Zones

All times are in EDT time to prevent confusion due to time zone crossing. See the ASQ6151 flight status page for this flight to view local times or setup timezone preferences in your user account.

Time Position Orientation Groundspeed Altitude Reporting Facility
EDT Latitude Longitude Course Direction KTS MPH feet Rate Location/Type
02:48PM 41.9667 -87.8667 169° South 176 203 2,200  Level Chicago TRACON
02:48PM 41.9333 -87.8167 132° Southeast 235 270 3,700 1,800 Climbing Chicago TRACON
02:50PM 41.8362 -87.5002 157° South  Level Estimated
02:50PM 41.8556 -87.7975 170° South 245 282 6,000  Level Chicago Center
02:51PM 41.7874 -87.3652 156° South  Level Estimated
02:51PM 41.7833 -87.7931 177° South 258 297 8,200  Level Chicago Center
02:52PM 41.6867 -87.4305 206° Southwest  Level FlightAware Approximate
02:52PM 41.6919 -87.7808 174° South 273 314 10,700  Level Chicago Center
02:53PM 41.6390 -87.2951 169° South  Level Estimated
02:53PM 41.6181 -87.7258 151° Southeast 304 350 12,300  Level Chicago Center
02:54PM 41.5453 -87.6675 149° Southeast 305 351 14,100 1,620 Climbing Chicago Center
02:55PM 41.4700 -87.6081 149° Southeast 311 358 15,700 1,200 Climbing Chicago Center
02:56PM 41.3844 -87.5664 160° South 336 387 16,600 960 Climbing Chicago Center
02:57PM 41.2903 -87.5494 172° South 340 391 17,700 1,080 Climbing Chicago Center
02:58PM 41.1928 -87.5314 172° South 350 403 18,900 1,200 Climbing Chicago Center
02:59PM 41.0744 -87.4989 168° South 361 415 20,300 1,140 Climbing Chicago Center
03:00PM 40.9728 -87.4719 169° South 370 426 21,300 900 Climbing Chicago Center
03:01PM 40.8689 -87.4439 168° South 379 436 22,200 960 Climbing Chicago Center
03:02PM 40.7642 -87.4164 169° South 383 441 23,300 960 Climbing Chicago Center
03:03PM 40.6603 -87.3886 169° South 383 441 24,200 780 Climbing Chicago Center
03:04PM 40.5317 -87.3553 169° South 392 451 25,000 720 Climbing Chicago Center
03:05PM 40.4275 -87.3092 161° South 406 467 25,800 840 Climbing Chicago Center
03:06PM 40.3353 -87.2278 146° Southeast 403 464 26,800 900 Climbing Chicago Center
03:07PM 40.2442 -87.1419 144° Southeast 404 465 27,700 900 Climbing Chicago Center
03:08PM 40.1539 -87.0583 145° Southeast 402 463 28,700 1,020 Climbing Chicago Center
03:09PM 40.0778 -86.9875 145° Southeast 402 463 29,500 960 Climbing Indianapolis Center
03:10PM 39.9875 -86.9039 145° Southeast 399 459 30,400 720 Climbing Indianapolis Center
03:11PM 39.8925 -86.8261 148° Southeast 399 459 31,000 240 Climbing Indianapolis Center
03:12PM 39.7947 -86.7408 146° Southeast 416 479 31,000  Level Indianapolis Center
03:13PM 39.7247 -86.5972 122° Southeast 459 528 31,000  Level Indianapolis Center
03:14PM 39.6578 -86.4503 121° Southeast 468 539 31,000  Level Indianapolis Center
03:15PM 39.5889 -86.3011 121° Southeast 478 550 31,000  Level Indianapolis Center
03:16PM 39.5222 -86.1536 120° Southeast 474 545 31,000  Level Indianapolis Center
03:17PM 39.4433 -85.9831 121° Southeast 459 528 31,000  Level Indianapolis Center
03:18PM 39.3783 -85.8408 121° Southeast 458 527 31,000  Level Indianapolis Center
03:19PM 39.3125 -85.6989 121° Southeast 459 528 31,000  Level Indianapolis Center
03:20PM 39.2494 -85.5644 121° Southeast 464 534 31,000  Level Indianapolis Center
03:21PM 39.1703 -85.3958 121° Southeast 467 537 31,000  Level Indianapolis Center
03:22PM 39.1108 -85.2694 121° Southeast 461 531 31,000  Level Indianapolis Center
03:23PM 39.0447 -85.1311 122° Southeast 454 522 31,000  Level Indianapolis Center
03:24PM 38.9658 -84.9664 122° Southeast 449 517 31,000  Level Indianapolis Center
03:25PM 38.9006 -84.8289 121° Southeast 454 522 31,000  Level Indianapolis Center
03:27PM 38.8322 -84.6900 122° Southeast 460 529 31,000  Level Indianapolis Center
03:28PM 38.7642 -84.5489 122° Southeast 463 533 31,000  Level Indianapolis Center
03:29PM 38.6894 -84.3919 121° Southeast 467 537 31,000  Level Indianapolis Center
03:30PM 38.6403 -84.2250 111° Southeast 482 555 31,000  Level Indianapolis Center
03:31PM 38.6222 -84.0586 98° East 474 545 31,000  Level Indianapolis Center
03:32PM 38.6042 -83.8900 98° East 476 548 31,000  Level Indianapolis Center
03:33PM 38.5847 -83.7219 98° East 477 549 31,000  Level Indianapolis Center
03:34PM 38.5661 -83.5528 98° East 480 552 31,000  Level Indianapolis Center
03:35PM 38.5461 -83.3850 99° East 478 550 31,000  Level Indianapolis Center
03:36PM 38.5242 -83.1892 98° East 478 550 31,000  Level Indianapolis Center
03:37PM 38.4950 -83.0261 103° East 473 544 31,000  Level Indianapolis Center
03:38PM 38.4644 -82.8614 103° East 474 545 31,000  Level Indianapolis Center
03:39PM 38.4414 -82.6958 100° East 472 543 31,000  Level Indianapolis Center
03:40PM 38.4206 -82.5289 99° East 475 547 31,000  Level Indianapolis Center
03:41PM 38.4011 -82.3706 99° East 470 541 31,000  Level Indianapolis Center
03:42PM 38.3758 -82.1744 99° East 469 540 31,000  Level Indianapolis Center
03:43PM 38.3561 -82.0136 99° East 465 535 31,000  Level Indianapolis Center
03:44PM 38.3356 -81.8511 99° East 467 537 31,000  Level Indianapolis Center
03:45PM 38.3139 -81.6892 100° East 468 539 31,000  Level Indianapolis Center
03:46PM 38.2922 -81.5278 100° East 468 539 31,000  Level Indianapolis Center
03:47PM 38.2653 -81.3342 100° East 469 540 31,000  Level Indianapolis Center
03:48PM 38.2433 -81.1706 100° East 471 542 31,000  Level Indianapolis Center
03:49PM 38.2217 -81.0083 100° East 469 540 31,000  Level Indianapolis Center
03:50PM 38.1986 -80.8442 100° East 474 545 31,000  Level Indianapolis Center
03:51PM 38.1731 -80.6797 101° East 475 547 31,000  Level Indianapolis Center
03:52PM 38.1583 -80.5989 103° East 469 540 31,000  Level Washington Center
03:53PM 38.1317 -80.4358 102° East 469 540 31,000 -300 Level Washington Center
03:54PM 38.1086 -80.2867 101° East 474 545 30,400 -1,020 Descending Washington Center
03:55PM 38.0814 -80.1267 102° East 469 540 29,000 -1,440 Descending Washington Center
03:56PM 38.0539 -79.9667 102° East 469 540 27,600 -1,020 Descending Washington Center
03:57PM 38.0242 -79.8069 103° East 463 533 27,000 -360 Descending Washington Center
03:58PM 37.9983 -79.6472 102° East 463 533 27,000  Level Washington Center
03:59PM 37.9689 -79.4692 102° East 463 533 27,000 -300 Level Washington Center
04:00PM 37.9386 -79.3069 103° East 463 533 26,500 -1,080 Descending Washington Center
04:01PM 37.9100 -79.1450 103° East 468 539 24,900 -1,260 Descending Washington Center
04:02PM 37.8708 -78.9878 107° East 462 532 24,000 -720 Descending Washington Center
04:03PM 37.8250 -78.8361 111° Southeast 462 532 23,500 -540 Descending Washington Center
04:04PM 37.7869 -78.7003 109° East 462 532 23,000 -300 Descending Washington Center
04:05PM 37.7428 -78.5489 110° East 462 532 23,000 -540 Level Washington Center
04:06PM 37.6964 -78.3922 110° East 462 532 22,000 -1,020 Descending Washington Center
04:07PM 37.6539 -78.2411 110° East 457 526 21,000 -540 Descending Washington Center
04:08PM 37.6011 -78.0794 112° Southeast 457 526 21,000 -480 Level Washington Center
04:09PM 37.5603 -77.9339 109° East 457 526 20,100 -1,200 Descending Washington Center
04:10PM 37.5275 -77.7836 105° East 451 519 18,600 -1,080 Descending Washington Center
04:11PM 37.5156 -77.6367 96° East 431 496 18,000 -960 Descending Washington Center
04:12PM 37.5053 -77.4950 95° East 420 483 16,800 -1,020 Descending Washington Center
04:13PM 37.4969 -77.3667 95° East 392 451 16,000 -420 Descending Washington Center
04:14PM 37.4864 -77.2303 96° East 385 443 16,000 -60 Level Washington Center
04:14PM 37.4794 -77.1253 95° East 421 484 15,900 -660 Descending Washington Center
04:15PM 37.4736 -77.0886 101° East 396 456 15,400 -2,040 Descending Washington Center
04:15PM 37.4700 -77.0258 94° East 415 478 14,400 -1,380 Descending Washington Center
04:16PM 37.4625 -76.9656 99° East 404 465 14,000 -420 Descending Washington Center
04:16PM 37.4611 -76.8922 91° East 389 448 14,000  Level Washington Center
04:17PM 37.4533 -76.8450 102° East 389 448 14,000 60 Level Washington Center
04:17PM 37.4503 -76.7508 92° East 376 433 14,100  Climbing Washington Center
04:18PM 37.4464 -76.6983 95° East 384 442 14,000  Descending Washington Center
04:18PM 37.4347 -76.6222 101° East 372 428 14,100  Climbing Washington Center
04:19PM 37.4267 -76.5700 101° East 379 436 14,000  Descending Washington Center
04:19PM 37.4169 -76.5017 100° East 383 441 14,100  Climbing Washington Center
04:20PM 37.4089 -76.4339 98° East 379 436 14,000 -120 Descending Washington Center
04:20PM 37.3781 -76.3733 123° Southeast 409 471 14,000 -420 Level Washington Center
04:21PM 37.3408 -76.3364 142° Southeast 372 428 13,600 -1,260 Descending Washington Center
04:21PM 37.2889 -76.2992 150° Southeast 336 387 12,600 -1,500 Descending Washington Center
04:22PM 37.2597 -76.2731 145° Southeast 344 396 12,100 -1,560 Descending Washington Center
04:22PM 37.2183 -76.2464 153° Southeast 318 366 11,200 -1,140 Descending Washington Center
04:23PM 37.1850 -76.2150 143° Southeast 332 382 11,000 -540 Descending Washington Center
04:23PM 37.1456 -76.1886 152° Southeast 296 341 10,700 -1,020 Descending Washington Center
04:24PM 37.1164 -76.1622 144° Southeast 306 352 10,000 -2,040 Descending Washington Center
04:24PM 37.0747 -76.1333 151° Southeast 281 323 8,700 -2,160 Descending Washington Center
04:25PM 37.0142 -76.1617 200° South 269 310 7,000 -1,860 Descending Washington Center